EDFX weather

Public forecast

Using degrees Celsius for public forecast. Weather courtesy of forecast.io.

Closest aviation weather report (METAR) to Hockenheim Airport

Closest report is Mannheim-City Airport, 8.9 nm (16.5 km) N. Retrieved 2020/08/10 14:50 UTC (13 minutes ago):

EDFM 101450Z 04010KT 010V070 CAVOK 34/15 Q1013

Closest aviation forecast (TAF) to Hockenheim Airport

Forecast is more than 12 hours old.

Closest forecast is Mannheim-City Airport, 8.9 nm (16.5 km) N. Retrieved 2012/03/06 06:30 UTC (8 years ago):

TAF EDFM 060519Z 0606/0621 15004KT 9999 FEW040